Terminal Aerodrome Forecast
Issued by NWS Cleveland, OH

Home | Current Version | Previous Version | Graphics & Text | Print | Product List | Glossary On
Versions: 1 2 3 4 5 6 7 8 9 10 11 12 13 14 15 16 17 18 19 20 21 22 23 24 25 26 27
877
FTUS41 KCLE 080523
TAFCLE
TAF
KCLE 080523Z 0806/0912 25012G18KT P6SM SCT025 BKN100
      TEMPO 0808/0812 BKN025
     FM081200 25014G24KT P6SM OVC030
     FM081900 27020G30KT P6SM VCSH OVC035
     FM090000 26015G25KT 3SM -SHSN OVC025=

USA.gov is the U.S. government's official web portal to all federal, state and local government web resources and services.